createdAt,value
2019-03-21T00:02:14.129Z,7.15
2019-03-21T00:04:44.226Z,6.28
2019-03-21T00:07:13.183Z,5.83
2019-03-21T00:09:44.983Z,7.53
2019-03-21T00:12:13.979Z,7.40
2019-03-21T00:14:58.188Z,7.08
2019-03-21T00:17:38.777Z,6.67
2019-03-21T00:20:10.567Z,7.28
2019-03-21T00:22:39.435Z,6.97
2019-03-21T00:25:11.420Z,7.12
2019-03-21T00:27:40.269Z,8.35
2019-03-21T00:30:20.418Z,7.40
2019-03-21T00:32:49.550Z,8.23
2019-03-21T00:35:18.354Z,8.45
2019-03-21T00:37:47.238Z,9.38
2019-03-21T00:40:19.025Z,9.30
2019-03-21T00:42:48.322Z,9.55
2019-03-21T00:45:17.633Z,9.28
2019-03-21T00:51:15.038Z,8.53
2019-03-21T00:53:43.939Z,9.40
2019-03-21T00:56:12.736Z,9.40
2019-03-21T00:58:41.588Z,9.38
2019-03-21T01:01:10.793Z,8.98
2019-03-21T01:03:39.585Z,9.20
2019-03-21T01:06:08.778Z,9.20
2019-03-21T01:08:37.679Z,10.13
2019-03-21T01:11:06.492Z,8.98
2019-03-21T01:13:37.978Z,9.35
2019-03-21T01:16:06.808Z,9.38
2019-03-21T01:18:38.824Z,8.88
2019-03-21T01:21:07.619Z,9.00
2019-03-21T01:23:36.524Z,9.58
2019-03-21T01:26:08.273Z,9.60
2019-03-21T01:28:37.065Z,9.48
2019-03-21T01:31:05.902Z,9.63
2019-03-21T01:33:34.710Z,9.18
2019-03-21T01:36:04.615Z,10.05
2019-03-21T01:38:33.470Z,9.95
2019-03-21T01:41:05.262Z,9.23
2019-03-21T01:43:34.130Z,9.43
2019-03-21T01:46:05.047Z,9.38
2019-03-21T01:48:33.858Z,10.45
2019-03-21T01:51:02.733Z,10.58
2019-03-21T01:53:31.625Z,9.28
2019-03-21T01:56:00.416Z,9.40
2019-03-21T01:58:29.224Z,11.30
2019-03-21T02:00:58.336Z,10.13
2019-03-21T02:03:27.205Z,10.45
2019-03-21T02:05:56.024Z,10.50
2019-03-21T02:08:24.868Z,10.35
2019-03-21T02:10:53.672Z,10.88
2019-03-21T02:13:22.475Z,11.35
2019-03-21T02:15:51.282Z,9.15
2019-03-21T02:18:20.102Z,8.78
2019-03-21T02:20:48.971Z,9.38
2019-03-21T02:23:17.871Z,8.90
2019-03-21T02:25:46.874Z,9.85
2019-03-21T02:28:15.749Z,9.13
2019-03-21T02:30:52.640Z,9.00
2019-03-21T02:33:30.517Z,10.00
2019-03-21T02:35:59.312Z,10.35
2019-03-21T02:38:28.044Z,9.53
2019-03-21T02:41:00.351Z,10.80
2019-03-21T02:43:29.181Z,10.98
2019-03-21T02:45:58.063Z,11.48
2019-03-21T02:48:26.866Z,11.78
2019-03-21T02:50:55.699Z,11.60
2019-03-21T02:53:24.524Z,11.80
2019-03-21T02:55:53.287Z,10.88
2019-03-21T02:58:22.093Z,11.03
2019-03-21T03:00:50.955Z,11.40
2019-03-21T03:03:19.829Z,11.38
2019-03-21T03:05:48.649Z,10.90
2019-03-21T03:08:17.499Z,10.65
2019-03-21T03:10:49.334Z,10.82
2019-03-21T03:13:18.175Z,10.85
2019-03-21T03:15:46.942Z,10.28
2019-03-21T03:18:18.072Z,10.50
2019-03-21T03:20:46.934Z,10.93
2019-03-21T03:23:15.653Z,11.20
2019-03-21T03:25:44.432Z,11.63
2019-03-21T03:28:40.944Z,11.20
2019-03-21T03:31:09.900Z,11.88
2019-03-21T03:33:38.914Z,11.73
2019-03-21T03:36:07.769Z,11.73
2019-03-21T03:38:36.609Z,11.57
2019-03-21T03:41:19.582Z,12.18
2019-03-21T03:43:48.382Z,12.13
2019-03-21T03:46:17.171Z,11.35
2019-03-21T03:48:46.027Z,11.97
2019-03-21T03:51:14.849Z,11.00
2019-03-21T03:53:43.650Z,10.65
2019-03-21T03:56:12.485Z,10.82
2019-03-21T03:58:46.763Z,11.35
2019-03-21T04:01:15.597Z,10.28
2019-03-21T04:03:44.561Z,10.55
2019-03-21T04:06:13.444Z,9.83
2019-03-21T04:08:42.229Z,9.80
2019-03-21T04:11:11.336Z,9.83
2019-03-21T04:13:40.212Z,9.30
2019-03-21T04:16:09.156Z,10.03
2019-03-21T04:18:37.903Z,9.43
2019-03-21T04:21:12.463Z,9.25
2019-03-21T04:23:41.254Z,9.33
2019-03-21T04:26:22.116Z,10.32
2019-03-21T04:28:50.937Z,9.85
2019-03-21T04:31:19.817Z,10.28
2019-03-21T04:33:50.635Z,10.88
2019-03-21T04:36:19.417Z,10.35
2019-03-21T04:38:48.280Z,10.72
2019-03-21T04:41:17.091Z,10.72
2019-03-21T04:43:45.913Z,11.25
2019-03-21T04:46:14.680Z,10.23
2019-03-21T04:48:43.587Z,11.22
2019-03-21T04:51:12.383Z,10.13
2019-03-21T04:53:41.156Z,9.63
2019-03-21T04:56:10.023Z,10.48
2019-03-21T04:58:38.794Z,11.20
2019-03-21T05:01:07.620Z,10.93
2019-03-21T05:03:36.418Z,11.15
2019-03-21T05:06:05.335Z,10.40
2019-03-21T05:08:34.198Z,11.28
2019-03-21T05:11:03.041Z,10.98
2019-03-21T05:13:31.882Z,10.98
2019-03-21T05:16:00.648Z,10.53
2019-03-21T05:18:32.768Z,11.18
2019-03-21T05:21:02.710Z,9.80
2019-03-21T05:23:31.503Z,10.18
2019-03-21T05:26:00.398Z,10.20
2019-03-21T05:28:29.291Z,11.48
2019-03-21T05:31:07.775Z,10.93
2019-03-21T05:33:36.574Z,10.15
2019-03-21T05:36:05.519Z,10.25
2019-03-21T05:38:34.366Z,10.38
2019-03-21T05:41:03.134Z,9.95
2019-03-21T05:43:40.898Z,10.25
2019-03-21T05:46:09.741Z,10.75
2019-03-21T05:48:38.522Z,10.88
2019-03-21T05:51:07.355Z,11.55
2019-03-21T05:53:36.181Z,12.40
2019-03-21T05:56:04.991Z,11.93
2019-03-21T05:58:33.866Z,13.15
2019-03-21T06:01:08.531Z,14.75
2019-03-21T06:03:50.819Z,12.88
2019-03-21T06:06:37.406Z,12.30
2019-03-21T06:09:12.574Z,21.57
2019-03-21T06:11:44.505Z,20.95
2019-03-21T06:14:13.682Z,13.32
2019-03-21T06:16:42.489Z,12.55
2019-03-21T06:19:23.092Z,12.33
2019-03-21T06:22:17.603Z,12.07
2019-03-21T06:25:05.756Z,13.43
2019-03-21T06:27:34.588Z,17.00
2019-03-21T06:30:03.464Z,30.85
2019-03-21T06:32:32.290Z,41.13
2019-03-21T06:35:01.156Z,18.30
2019-03-21T06:37:30.003Z,12.75
2019-03-21T06:39:58.840Z,11.20
2019-03-21T06:42:27.671Z,11.38
2019-03-21T06:44:56.618Z,10.88
2019-03-21T06:47:25.495Z,9.60
2019-03-21T06:49:54.315Z,10.00
2019-03-21T06:52:23.092Z,10.38
2019-03-21T06:54:51.965Z,10.18
2019-03-21T06:57:20.814Z,10.35
2019-03-21T06:59:49.572Z,8.83
2019-03-21T07:02:18.399Z,8.90
2019-03-21T07:04:47.288Z,8.18
2019-03-21T07:07:16.152Z,9.05
2019-03-21T07:09:45.015Z,11.40
2019-03-21T07:12:13.873Z,8.40
2019-03-21T07:14:42.653Z,8.70
2019-03-21T07:17:11.613Z,8.18
2019-03-21T07:19:40.478Z,7.75
2019-03-21T07:22:09.270Z,7.33
2019-03-21T07:24:38.046Z,7.75
2019-03-21T07:27:06.862Z,8.15
2019-03-21T07:29:35.687Z,8.18
2019-03-21T07:32:04.483Z,8.10
2019-03-21T07:34:33.386Z,8.50
2019-03-21T07:37:02.147Z,7.55
2019-03-21T07:39:30.987Z,7.90
2019-03-21T07:42:01.217Z,7.70
2019-03-21T07:44:30.352Z,7.35
2019-03-21T07:46:59.153Z,7.45
2019-03-21T07:49:27.935Z,8.20
2019-03-21T07:51:56.790Z,8.00
2019-03-21T07:54:25.583Z,8.70
2019-03-21T07:56:54.365Z,9.38
2019-03-21T07:59:23.185Z,9.33
2019-03-21T08:01:51.987Z,10.32
2019-03-21T08:04:20.852Z,10.80
2019-03-21T08:06:49.735Z,12.20
2019-03-21T08:09:18.511Z,12.15
2019-03-21T08:11:47.343Z,12.78
2019-03-21T08:14:16.095Z,15.43
2019-03-21T08:16:44.928Z,14.68
2019-03-21T08:19:13.951Z,14.53
2019-03-21T08:21:42.819Z,15.18
2019-03-21T08:24:11.598Z,15.08
2019-03-21T08:26:40.484Z,15.53
2019-03-21T08:29:09.343Z,14.25
2019-03-21T08:31:38.127Z,13.65
2019-03-21T08:34:06.953Z,13.70
2019-03-21T08:36:35.799Z,13.93
2019-03-21T08:39:07.079Z,13.40
2019-03-21T08:41:35.988Z,11.93
2019-03-21T08:44:04.836Z,12.18
2019-03-21T08:46:33.616Z,12.23
2019-03-21T08:49:02.424Z,11.85
2019-03-21T08:51:31.347Z,10.25
2019-03-21T08:54:00.145Z,11.85
2019-03-21T08:56:29.002Z,10.00
2019-03-21T08:58:57.816Z,11.68
2019-03-21T09:01:26.670Z,10.72
2019-03-21T09:03:55.608Z,11.18
2019-03-21T09:06:24.435Z,11.83
2019-03-21T09:08:53.207Z,10.30
2019-03-21T09:11:22.132Z,9.40
2019-03-21T09:13:50.959Z,11.20
2019-03-21T09:16:19.742Z,10.80
2019-03-21T09:18:48.586Z,9.30
2019-03-21T09:21:19.952Z,9.18
2019-03-21T09:23:48.134Z,8.80
2019-03-21T09:26:16.903Z,9.15
2019-03-21T09:28:45.764Z,8.50
2019-03-21T09:31:14.623Z,8.28
2019-03-21T09:33:43.452Z,8.20
2019-03-21T09:36:12.245Z,9.40
2019-03-21T09:38:40.997Z,7.53
2019-03-21T09:41:09.897Z,8.18
2019-03-21T09:43:38.708Z,8.08
2019-03-21T09:46:07.590Z,7.62
2019-03-21T09:48:36.425Z,8.73
2019-03-21T09:51:05.298Z,8.68
2019-03-21T09:53:34.094Z,7.90
2019-03-21T09:56:02.940Z,7.72
2019-03-21T09:58:31.783Z,7.78
2019-03-21T10:01:00.607Z,9.10
2019-03-21T10:03:29.427Z,8.13
2019-03-21T10:05:58.233Z,7.55
2019-03-21T10:08:27.003Z,7.20
2019-03-21T10:10:55.831Z,7.10
2019-03-21T10:13:24.604Z,6.05
2019-03-21T10:15:53.474Z,6.40
2019-03-21T10:18:22.299Z,8.03
2019-03-21T10:20:51.173Z,7.42
2019-03-21T10:23:20.149Z,7.72
2019-03-21T10:25:49.018Z,6.83
2019-03-21T10:28:17.828Z,6.78
2019-03-21T10:30:46.626Z,6.58
2019-03-21T10:33:15.534Z,7.08
2019-03-21T10:35:44.417Z,7.55
2019-03-21T10:38:13.204Z,8.93
2019-03-21T10:40:41.982Z,8.28
2019-03-21T10:43:10.876Z,7.30
2019-03-21T10:45:39.635Z,7.60
2019-03-21T10:48:08.508Z,6.47
2019-03-21T10:50:41.645Z,6.17
2019-03-21T10:53:10.741Z,5.63
2019-03-21T10:55:39.630Z,6.03
2019-03-21T10:58:08.908Z,6.08
2019-03-21T11:00:37.852Z,5.58
2019-03-21T11:03:06.757Z,5.30
2019-03-21T11:05:35.856Z,5.42
2019-03-21T11:08:04.931Z,6.35
2019-03-21T11:10:33.773Z,5.92
2019-03-21T11:13:02.730Z,6.53
2019-03-21T11:15:31.683Z,7.10
2019-03-21T11:18:00.503Z,6.95
2019-03-21T11:20:36.492Z,6.65
2019-03-21T11:23:06.364Z,5.95
2019-03-21T11:25:35.564Z,5.40
2019-03-21T11:28:04.794Z,5.92
2019-03-21T11:30:35.958Z,6.75
2019-03-21T11:33:05.356Z,5.75
2019-03-21T11:35:35.048Z,4.83
2019-03-21T11:38:04.305Z,6.15
2019-03-21T11:40:33.049Z,6.42
2019-03-21T11:43:03.017Z,5.42
2019-03-21T11:45:31.871Z,5.40
2019-03-21T11:48:00.669Z,5.45
2019-03-21T11:50:29.468Z,5.30
2019-03-21T11:52:58.251Z,5.75
2019-03-21T11:55:27.044Z,5.50
2019-03-21T11:57:55.960Z,5.87
2019-03-21T12:00:24.747Z,4.83
2019-03-21T12:02:53.520Z,5.22
2019-03-21T12:05:22.425Z,5.55
2019-03-21T12:07:51.223Z,5.40
2019-03-21T12:10:20.250Z,6.45
2019-03-21T12:12:49.075Z,6.25
2019-03-21T12:15:18.119Z,5.78
2019-03-21T12:17:46.950Z,7.08
2019-03-21T12:20:30.725Z,6.17
2019-03-21T12:22:59.480Z,6.45
2019-03-21T12:25:28.343Z,6.97
2019-03-21T12:27:57.489Z,6.70
2019-03-21T12:30:36.961Z,6.37
2019-03-21T12:33:06.050Z,6.42
2019-03-21T12:35:34.891Z,6.55
2019-03-21T12:38:04.049Z,6.47
2019-03-21T12:40:32.884Z,6.83
2019-03-21T12:43:01.712Z,6.90
2019-03-21T12:45:30.459Z,6.35
2019-03-21T12:47:59.311Z,6.60
2019-03-21T12:50:28.178Z,7.92
2019-03-21T12:52:57.058Z,7.12
2019-03-21T12:55:25.846Z,6.87
2019-03-21T12:57:54.719Z,8.13
2019-03-21T13:00:38.004Z,8.08
2019-03-21T13:03:07.284Z,8.08
2019-03-21T13:05:36.022Z,8.18
2019-03-21T13:08:04.856Z,6.95
2019-03-21T13:10:33.672Z,7.60
2019-03-21T13:13:02.596Z,7.30
2019-03-21T13:15:31.529Z,7.33
2019-03-21T13:18:00.771Z,8.00
2019-03-21T13:20:29.773Z,7.37
2019-03-21T13:23:00.138Z,7.22
2019-03-21T13:25:28.943Z,8.20
2019-03-21T13:27:57.815Z,8.65
2019-03-21T13:30:26.792Z,9.75
2019-03-21T13:32:55.618Z,8.73
2019-03-21T13:35:32.645Z,8.28
2019-03-21T13:37:54.976Z,9.50
2019-03-21T13:40:23.751Z,8.35
2019-03-21T13:42:52.547Z,8.28
2019-03-21T13:45:21.355Z,9.35
2019-03-21T13:47:50.232Z,9.08
2019-03-21T13:50:19.046Z,7.80
2019-03-21T13:52:47.903Z,8.15
2019-03-21T13:55:16.789Z,8.55
2019-03-21T13:57:45.534Z,8.33
2019-03-21T14:00:21.710Z,8.23
2019-03-21T14:02:50.457Z,8.73
2019-03-21T14:05:19.279Z,9.10
2019-03-21T14:07:48.208Z,9.23
2019-03-21T14:10:17.149Z,9.10
2019-03-21T14:12:45.976Z,9.20
2019-03-21T14:15:17.074Z,8.23
2019-03-21T14:17:45.907Z,8.25
2019-03-21T14:20:15.894Z,9.25
2019-03-21T14:22:44.877Z,8.73
2019-03-21T14:25:13.688Z,7.78
2019-03-21T14:27:42.478Z,9.30
2019-03-21T14:30:16.062Z,7.90
2019-03-21T14:32:45.135Z,8.38
2019-03-21T14:35:14.295Z,7.47
2019-03-21T14:37:43.067Z,8.03
2019-03-21T14:40:13.723Z,7.80
2019-03-21T14:42:42.983Z,8.20
2019-03-21T14:45:16.428Z,10.08
2019-03-21T14:47:45.191Z,8.10
2019-03-21T14:50:16.166Z,9.75
2019-03-21T14:52:45.071Z,8.70
2019-03-21T14:55:15.667Z,7.95
2019-03-21T14:57:44.449Z,8.38
2019-03-21T15:00:20.827Z,8.08
2019-03-21T15:02:49.590Z,7.97
2019-03-21T15:05:18.318Z,8.43
2019-03-21T15:07:47.196Z,8.03
2019-03-21T15:10:18.223Z,7.90
2019-03-21T15:12:47.018Z,9.65
2019-03-21T15:15:16.523Z,8.58
2019-03-21T15:17:45.347Z,8.83
2019-03-21T15:20:16.110Z,9.18
2019-03-21T15:22:44.897Z,8.50
2019-03-21T15:25:14.098Z,9.38
2019-03-21T15:27:42.858Z,7.97
2019-03-21T15:30:14.942Z,8.73
2019-03-21T15:32:44.043Z,8.43
2019-03-21T15:35:15.648Z,9.50
2019-03-21T15:37:44.544Z,9.13
2019-03-21T15:40:14.915Z,9.18
2019-03-21T15:42:43.709Z,8.98
2019-03-21T15:45:22.930Z,7.97
2019-03-21T15:47:48.867Z,9.50
2019-03-21T15:50:37.622Z,9.35
2019-03-21T15:53:07.109Z,9.58
2019-03-21T15:55:35.941Z,8.65
2019-03-21T15:58:04.908Z,8.53
2019-03-21T16:00:38.271Z,8.23
2019-03-21T16:03:08.584Z,8.45
2019-03-21T16:05:38.063Z,8.43
2019-03-21T16:08:09.007Z,8.55
2019-03-21T16:10:38.307Z,9.35
2019-03-21T16:13:07.364Z,8.90
2019-03-21T16:15:36.175Z,7.05
2019-03-21T16:18:05.516Z,7.22
2019-03-21T16:20:34.355Z,8.48
2019-03-21T16:23:03.422Z,6.83
2019-03-21T16:25:32.376Z,6.22
2019-03-21T16:28:01.094Z,4.75
2019-03-21T16:30:30.010Z,5.83
2019-03-21T16:32:58.894Z,5.45
2019-03-21T16:35:27.647Z,5.40
2019-03-21T16:37:56.681Z,5.12
2019-03-21T16:40:25.512Z,5.28
2019-03-21T16:42:54.382Z,4.85
2019-03-21T16:45:23.165Z,4.92
2019-03-21T16:47:52.175Z,5.70
2019-03-21T16:50:20.993Z,5.30
2019-03-21T16:52:49.734Z,5.53
2019-03-21T16:55:18.540Z,5.22
2019-03-21T16:57:47.383Z,5.30
2019-03-21T17:00:20.265Z,5.12
2019-03-21T17:02:49.083Z,4.53
2019-03-21T17:05:17.935Z,5.22
2019-03-21T17:07:46.777Z,4.70
2019-03-21T17:10:16.800Z,5.15
2019-03-21T17:12:45.597Z,4.85
2019-03-21T17:15:14.677Z,5.22
2019-03-21T17:17:43.488Z,4.97
2019-03-21T17:20:14.125Z,5.17
2019-03-21T17:22:42.980Z,5.30
2019-03-21T17:25:12.641Z,5.15
2019-03-21T17:27:41.510Z,5.10
2019-03-21T17:30:15.394Z,6.00
2019-03-21T17:32:46.889Z,5.35
2019-03-21T17:35:15.748Z,5.80
2019-03-21T17:37:44.593Z,6.10
2019-03-21T17:40:15.109Z,6.12
2019-03-21T17:42:43.919Z,5.95
2019-03-21T17:45:17.653Z,6.25
2019-03-21T17:47:46.471Z,6.30
2019-03-21T17:50:18.146Z,6.72
2019-03-21T17:52:47.273Z,6.30
2019-03-21T17:55:16.618Z,6.67
2019-03-21T17:57:45.429Z,6.70
2019-03-21T18:00:21.537Z,6.58
2019-03-21T18:02:50.326Z,6.70
2019-03-21T18:05:19.726Z,7.40
2019-03-21T18:07:48.546Z,7.33
2019-03-21T18:10:28.412Z,6.72
2019-03-21T18:12:57.576Z,6.55
2019-03-21T18:15:26.827Z,6.15
2019-03-21T18:17:55.574Z,6.15
2019-03-21T18:20:24.484Z,6.65
2019-03-21T18:22:53.262Z,7.00
2019-03-21T18:25:21.995Z,7.12
2019-03-21T18:27:50.864Z,7.50
2019-03-21T18:30:20.821Z,8.78
2019-03-21T18:32:49.642Z,8.25
2019-03-21T18:35:20.131Z,8.73
2019-03-21T18:37:48.911Z,8.68
2019-03-21T18:40:17.687Z,8.65
2019-03-21T18:42:46.480Z,9.80
2019-03-21T18:45:16.026Z,8.70
2019-03-21T18:47:44.932Z,9.50
2019-03-21T18:50:15.571Z,9.50
2019-03-21T18:52:44.414Z,9.43
2019-03-21T18:55:13.356Z,9.70
2019-03-21T18:57:42.139Z,9.83
2019-03-21T19:00:15.955Z,9.65
2019-03-21T19:02:44.873Z,9.95
2019-03-21T19:05:14.576Z,9.75
2019-03-21T19:07:43.337Z,10.23
2019-03-21T19:10:13.460Z,10.63
2019-03-21T19:12:42.423Z,10.05
2019-03-21T19:15:16.142Z,10.82
2019-03-21T19:17:45.012Z,11.00
2019-03-21T19:20:18.474Z,11.28
2019-03-21T19:22:47.875Z,11.00
2019-03-21T19:25:19.313Z,10.15
2019-03-21T19:27:48.580Z,10.45
2019-03-21T19:30:21.443Z,10.82
2019-03-21T19:32:50.313Z,10.80
2019-03-21T19:35:19.126Z,10.88
2019-03-21T19:37:48.069Z,10.68
2019-03-21T19:40:18.531Z,9.95
2019-03-21T19:42:47.433Z,10.43
2019-03-21T19:45:17.859Z,11.20
2019-03-21T19:47:46.807Z,11.28
2019-03-21T19:50:18.041Z,11.48
2019-03-21T19:52:46.950Z,11.10
2019-03-21T19:55:15.912Z,11.22
2019-03-21T19:57:44.768Z,11.70
2019-03-21T20:00:22.554Z,12.78
2019-03-21T20:02:51.453Z,11.95
2019-03-21T20:05:20.306Z,11.75
2019-03-21T20:07:49.187Z,12.50
2019-03-21T20:10:20.016Z,11.88
2019-03-21T20:12:48.900Z,11.68
2019-03-21T20:15:18.632Z,11.53
2019-03-21T20:17:47.489Z,11.40
2019-03-21T20:20:17.083Z,11.85
2019-03-21T20:22:47.521Z,12.00
2019-03-21T20:29:33.716Z,11.93
2019-03-21T20:32:02.643Z,12.43
2019-03-21T20:34:31.558Z,11.68
2019-03-21T20:37:00.457Z,11.95
2019-03-21T20:39:29.457Z,12.98
2019-03-21T20:41:58.436Z,12.98
2019-03-21T20:44:27.375Z,11.80
2019-03-21T20:46:56.237Z,13.50
2019-03-21T20:49:25.147Z,12.80
2019-03-21T20:51:54.045Z,12.58
2019-03-21T20:54:22.812Z,12.88
2019-03-21T20:56:51.616Z,12.85
2019-03-21T20:59:21.501Z,12.93
2019-03-21T21:01:50.387Z,11.93
2019-03-21T21:04:19.191Z,12.07
2019-03-21T21:06:48.146Z,11.57
2019-03-21T21:09:16.994Z,12.10
2019-03-21T21:11:45.840Z,10.75
2019-03-21T21:14:14.638Z,11.28
2019-03-21T21:16:43.544Z,11.80
2019-03-21T21:19:12.408Z,10.63
2019-03-21T21:21:41.333Z,10.08
2019-03-21T21:24:10.191Z,11.18
2019-03-21T21:26:39.061Z,10.60
2019-03-21T21:29:07.961Z,10.35
2019-03-21T21:31:36.770Z,9.88
2019-03-21T21:34:05.730Z,10.45
2019-03-21T21:36:34.611Z,10.10
2019-03-21T21:39:03.809Z,10.93
2019-03-21T21:41:34.062Z,10.72
2019-03-21T21:44:02.959Z,10.18
2019-03-21T21:46:33.463Z,9.93
2019-03-21T21:49:02.316Z,9.35
2019-03-21T21:51:31.163Z,9.65
2019-03-21T21:53:59.932Z,8.80
2019-03-21T21:56:28.789Z,9.55
2019-03-21T21:58:57.660Z,9.28
2019-03-21T22:01:29.515Z,9.40
2019-03-21T22:04:04.962Z,9.35
2019-03-21T22:06:30.635Z,9.05
2019-03-21T22:08:59.488Z,8.60
2019-03-21T22:11:28.290Z,8.90
2019-03-21T22:13:57.167Z,8.65
2019-03-21T22:16:27.505Z,8.70
2019-03-21T22:18:56.538Z,8.38
2019-03-21T22:21:25.345Z,7.80
2019-03-21T22:23:56.875Z,8.28
2019-03-21T22:26:29.852Z,8.23
2019-03-21T22:28:56.271Z,7.95
2019-03-21T22:31:25.132Z,7.80
2019-03-21T22:33:53.949Z,7.72
2019-03-21T22:36:22.741Z,7.65
2019-03-21T22:38:51.547Z,7.25
2019-03-21T22:41:20.417Z,7.08
2019-03-21T22:43:49.339Z,6.80
2019-03-21T22:46:18.210Z,7.62
2019-03-21T22:48:47.156Z,7.00
2019-03-21T22:51:16.014Z,7.10
2019-03-21T22:53:44.890Z,6.37
2019-03-21T22:56:13.759Z,6.30
2019-03-21T22:58:42.622Z,6.22
2019-03-21T23:01:11.414Z,6.85
2019-03-21T23:03:40.241Z,6.42
2019-03-21T23:06:09.073Z,7.08
2019-03-21T23:08:37.922Z,6.55
2019-03-21T23:11:08.357Z,6.85
2019-03-21T23:13:37.154Z,6.30
2019-03-21T23:16:05.929Z,6.22
2019-03-21T23:18:34.678Z,5.95
2019-03-21T23:21:03.477Z,6.03
2019-03-21T23:23:32.319Z,5.65
2019-03-21T23:26:01.087Z,5.42
2019-03-21T23:28:29.863Z,4.65
2019-03-21T23:30:58.598Z,4.12
2019-03-21T23:33:27.395Z,4.00
2019-03-21T23:35:56.211Z,4.10
2019-03-21T23:38:25.057Z,3.90
2019-03-21T23:40:53.874Z,4.00
2019-03-21T23:43:22.695Z,4.00
2019-03-21T23:45:51.814Z,4.22
2019-03-21T23:48:20.653Z,4.00
2019-03-21T23:50:49.411Z,3.90
2019-03-21T23:53:18.331Z,3.90
2019-03-21T23:55:47.199Z,3.45
2019-03-21T23:58:16.023Z,3.50
